Time;durP1;ratioP1;P1;durP2;ratioP2;P2;SDS_P1;SDS_P2;PMS_P1;PMS_P2;Temp;Humidity;BMP_temperature;BMP_pressure;BME280_temperature;BME280_humidity;BME280_pressure;Samples;Min_cycle;Max_cycle;Signal;HPM_P1;HPM_P2
2021/01/04 05:19:29;;;;;;;1.20;1.20;;;-8.50;99.90;;;;;;5530949;23;20046;-70
2021/01/04 05:22:08;;;;;;;1.27;1.27;;;-8.50;99.90;;;;;;4992755;28;20080;-71
2021/01/04 05:24:34;;;;;;;1.50;1.33;;;-8.40;99.90;;;;;;5011211;28;20025;-72
2021/01/04 05:27:17;;;;;;;1.10;1.10;;;-8.50;99.90;;;;;;5010849;28;20413;-71
2021/01/04 05:30:14;;;;;;;1.20;1.20;;;-8.40;99.90;;;;;;5007683;28;20033;-71
2021/01/04 05:33:12;;;;;;;1.10;1.10;;;-8.50;99.90;;;;;;5004292;28;20034;-83
2021/01/04 05:35:39;;;;;;;1.45;1.38;;;-8.40;99.90;;;;;;5015269;28;20025;-81
2021/01/04 05:38:15;;;;;;;1.50;1.40;;;-8.40;99.90;;;;;;5015262;28;20030;-82
2021/01/04 05:41:31;;;;;;;1.42;1.30;;;-8.40;99.90;;;;;;5014963;28;20499;-84
2021/01/04 05:44:13;;;;;;;1.38;1.35;;;-8.00;99.90;;;;;;5002836;28;20073;-74
2021/01/04 05:47:13;;;;;;;1.20;1.20;;;-7.60;99.90;;;;;;5015370;28;20067;-77
2021/01/04 05:49:47;;;;;;;5.25;2.15;;;-7.70;99.90;;;;;;5006472;28;20042;-81
2021/01/04 05:52:16;;;;;;;8.43;2.78;;;-7.90;99.90;;;;;;5003637;28;20021;-76
2021/01/04 05:54:42;;;;;;;1.53;1.43;;;-8.00;99.90;;;;;;5005200;28;20029;-79
2021/01/04 05:57:11;;;;;;;1.27;1.20;;;-8.20;99.90;;;;;;5008057;28;20022;-79
2021/01/04 05:59:46;;;;;;;2.85;2.20;;;-8.30;99.90;;;;;;5000084;28;20088;-76
2021/01/04 06:02:11;;;;;;;3.53;2.63;;;-8.30;99.90;;;;;;5014268;28;20026;-83
2021/01/04 06:04:37;;;;;;;1.45;1.40;;;-8.30;99.90;;;;;;5011812;28;20036;-85
2021/01/04 06:07:05;;;;;;;1.10;1.10;;;-8.30;99.90;;;;;;5006074;28;20022;-84
2021/01/04 06:09:31;;;;;;;1.30;1.30;;;-8.40;99.90;;;;;;5010364;28;20033;-84
2021/01/04 06:11:58;;;;;;;2.67;1.35;;;-8.40;99.90;;;;;;4996989;28;20105;-78
2021/01/04 06:14:27;;;;;;;1.35;1.35;;;-8.50;99.90;;;;;;5004936;28;20030;-89
2021/01/04 06:17:06;;;;;;;1.35;1.30;;;-8.50;99.90;;;;;;4999900;28;20418;-87
2021/01/04 06:19:41;;;;;;;1.17;1.17;;;-8.50;99.90;;;;;;4997880;28;20050;-87
2021/01/04 06:22:10;;;;;;;1.50;1.40;;;-8.50;99.90;;;;;;4993453;28;20045;-91
2021/01/04 06:24:37;;;;;;;1.20;1.20;;;-8.50;99.90;;;;;;4994867;28;20217;-77
2021/01/04 06:27:09;;;;;;;2.80;2.28;;;-8.50;99.90;;;;;;4994724;28;20022;-75
2021/01/04 06:29:47;;;;;;;1.60;1.50;;;-8.50;99.90;;;;;;4994484;28;20030;-78
2021/01/04 06:32:27;;;;;;;1.10;1.10;;;-8.30;99.90;;;;;;4994507;28;20076;-78
2021/01/04 06:35:03;;;;;;;1.30;1.20;;;-8.20;99.90;;;;;;4995779;28;20081;-88
2021/01/04 06:37:32;;;;;;;2.55;1.50;;;-8.20;99.90;;;;;;4995485;28;20030;-88
2021/01/04 06:40:11;;;;;;;1.80;1.70;;;-8.30;99.90;;;;;;4995487;28;20038;-89
2021/01/04 06:42:41;;;;;;;1.48;1.40;;;-8.30;99.90;;;;;;4995425;28;20026;-90
2021/01/04 06:45:29;;;;;;;1.30;1.30;;;-8.30;99.90;;;;;;4995628;28;20030;-88
2021/01/04 06:48:13;;;;;;;1.30;1.20;;;-8.30;99.90;;;;;;4995384;28;20040;-88
2021/01/04 06:51:05;;;;;;;1.50;1.40;;;-8.30;99.90;;;;;;4995014;28;20022;-89
2021/01/04 06:53:52;;;;;;;1.33;1.33;;;-8.30;99.90;;;;;;4995190;28;20482;-88
2021/01/04 06:56:41;;;;;;;3.53;1.58;;;-8.40;99.90;;;;;;4995367;28;20022;-79
2021/01/04 06:59:44;;;;;;;1.35;1.25;;;-8.40;99.90;;;;;;4993408;28;20046;-79
2021/01/04 07:02:55;;;;;;;1.80;1.70;;;-8.30;99.90;;;;;;4994541;28;20134;-84
2021/01/04 07:05:55;;;;;;;2.30;2.10;;;-8.30;99.90;;;;;;4992983;28;20031;-85
2021/01/04 07:09:15;;;;;;;2.65;1.50;;;-7.30;99.90;;;;;;4985005;28;20018;-80
2021/01/04 07:12:10;;;;;;;1.60;1.50;;;-6.80;99.90;;;;;;4994662;28;20023;-87
2021/01/04 07:15:13;;;;;;;1.50;1.40;;;-7.40;99.90;;;;;;4992559;28;20034;-81
2021/01/04 07:17:51;;;;;;;1.63;1.52;;;-7.70;99.90;;;;;;4993847;28;20014;-81
2021/01/04 07:20:31;;;;;;;1.33;1.33;;;-7.80;99.90;;;;;;4993325;28;20050;-72
2021/01/04 07:23:24;;;;;;;1.52;1.42;;;-7.90;99.90;;;;;;4992925;28;20014;-76
2021/01/04 07:26:05;;;;;;;1.90;1.67;;;-8.00;99.90;;;;;;4993156;28;20034;-74
2021/01/04 07:29:13;;;;;;;1.80;1.60;;;-8.00;99.90;;;;;;4993299;28;20026;-75
2021/01/04 07:31:50;;;;;;;2.38;1.90;;;-8.00;99.80;;;;;;4960158;28;20046;-76
2021/01/04 07:34:24;;;;;;;1.65;1.55;;;-8.00;99.90;;;;;;4993392;28;20026;-72
2021/01/04 07:37:25;;;;;;;1.35;1.25;;;-7.90;99.90;;;;;;4993150;28;20524;-70
2021/01/04 07:39:59;;;;;;;73.60;17.23;;;-7.90;99.90;;;;;;4993205;28;20039;-73
2021/01/04 07:42:57;;;;;;;60.10;16.17;;;-7.90;99.90;;;;;;4993734;28;20049;-73
2021/01/04 07:45:31;;;;;;;14.32;5.93;;;-7.90;99.90;;;;;;4978145;28;20038;-83
2021/01/04 07:48:31;;;;;;;2.72;2.20;;;-7.80;99.90;;;;;;4992885;28;20112;-84
2021/01/04 07:51:13;;;;;;;1.52;1.42;;;-7.80;99.80;;;;;;4981322;28;20030;-87
2021/01/04 07:54:08;;;;;;;1.60;1.50;;;-7.80;98.90;;;;;;4992806;28;20505;-76
2021/01/04 07:57:15;;;;;;;1.23;1.20;;;-6.90;99.90;;;;;;4992919;28;20395;-79
2021/01/04 07:59:56;;;;;;;1.33;1.23;;;-6.00;99.90;;;;;;4992467;28;20042;-85
2021/01/04 08:02:37;;;;;;;1.27;1.27;;;-6.40;99.90;;;;;;4993012;28;20207;-84
2021/01/04 08:05:41;;;;;;;1.25;1.25;;;-7.10;99.90;;;;;;4985059;28;20026;-88
2021/01/04 08:08:55;;;;;;;1.60;1.50;;;-7.40;99.90;;;;;;4990533;28;20381;-81
2021/01/04 08:11:51;;;;;;;1.75;1.38;;;-7.60;99.90;;;;;;4971664;28;20038;-82
2021/01/04 08:14:54;;;;;;;1.20;1.20;;;-7.70;99.90;;;;;;4990297;28;20026;-82
2021/01/04 08:17:43;;;;;;;1.65;1.55;;;-7.70;99.90;;;;;;4986657;28;20022;-74
2021/01/04 08:20:09;;;;;;;1.42;1.33;;;-7.70;99.90;;;;;;4983471;28;20050;-78
2021/01/04 08:22:53;;;;;;;1.40;1.30;;;-7.80;99.90;;;;;;4990767;28;20026;-83
2021/01/04 08:25:31;;;;;;;1.50;1.40;;;-7.70;99.90;;;;;;4993387;28;20030;-77
2021/01/04 08:28:20;;;;;;;1.50;1.40;;;-5.90;99.90;;;;;;4990693;28;20033;-76
2021/01/04 08:31:00;;;;;;;1.60;1.50;;;-5.10;99.90;;;;;;4981826;28;20018;-76
2021/01/04 08:33:40;;;;;;;1.25;1.15;;;-5.90;99.90;;;;;;4992525;28;20414;-76
2021/01/04 08:36:18;;;;;;;1.15;1.15;;;-6.70;99.90;;;;;;4992439;28;20030;-76
2021/01/04 08:38:44;;;;;;;1.33;1.30;;;-7.10;99.90;;;;;;4992378;28;20033;-76
2021/01/04 08:41:19;;;;;;;1.50;1.40;;;-7.30;99.90;;;;;;4992337;28;20398;-75
2021/01/04 08:43:51;;;;;;;1.30;1.23;;;-7.40;99.90;;;;;;4992175;28;20037;-75
2021/01/04 08:46:23;;;;;;;1.45;1.33;;;-7.50;99.90;;;;;;4992396;28;20065;-75
2021/01/04 08:49:15;;;;;;;1.38;1.27;;;-7.70;99.90;;;;;;4992287;28;20022;-76
2021/01/04 08:51:43;;;;;;;1.17;1.17;;;-7.70;99.90;;;;;;4992550;28;20026;-76
2021/01/04 08:54:28;;;;;;;1.67;1.42;;;-7.80;99.90;;;;;;4992282;28;20543;-76
2021/01/04 08:57:14;;;;;;;1.10;1.10;;;-7.90;99.90;;;;;;4991967;28;20025;-76
2021/01/04 08:59:55;;;;;;;1.20;1.20;;;-7.90;99.90;;;;;;4992088;28;20092;-76
2021/01/04 09:02:33;;;;;;;;;;;-7.90;99.90;;;;;;4996344;28;20073;-76
2021/01/04 09:05:02;;;;;;;1.40;1.30;;;-8.00;99.90;;;;;;4996120;28;20001;-76
2021/01/04 09:07:28;;;;;;;1.50;1.40;;;-8.10;99.90;;;;;;4996264;28;20538;-76
2021/01/04 09:10:16;;;;;;;2.47;1.30;;;-8.10;99.90;;;;;;4996296;28;20034;-76
2021/01/04 09:12:48;;;;;;;1.58;1.40;;;-8.10;99.90;;;;;;4996283;28;20026;-76
2021/01/04 09:15:19;;;;;;;3.03;1.40;;;-8.10;99.90;;;;;;4996033;28;20377;-75
2021/01/04 09:18:07;;;;;;;1.10;1.10;;;-8.20;99.90;;;;;;4995959;28;20139;-76
2021/01/04 09:20:58;;;;;;;2.25;1.40;;;-8.20;99.90;;;;;;4995757;28;20046;-75
2021/01/04 09:23:40;;;;;;;1.58;1.38;;;-8.10;99.90;;;;;;4984637;28;20381;-76
2021/01/04 09:26:33;;;;;;;1.33;1.23;;;-8.10;99.90;;;;;;4995683;28;20031;-73
2021/01/04 09:29:06;;;;;;;1.77;1.40;;;-8.20;99.90;;;;;;4984379;28;20112;-73
2021/01/04 09:31:33;;;;;;;1.60;1.50;;;-8.20;99.90;;;;;;4995706;28;20044;-74
2021/01/04 09:33:59;;;;;;;1.50;1.40;;;-8.20;99.90;;;;;;4995780;28;20050;-74
2021/01/04 09:36:25;;;;;;;1.20;1.20;;;-8.20;99.90;;;;;;4995668;28;20105;-74
2021/01/04 09:39:07;;;;;;;2.65;1.40;;;-8.10;99.90;;;;;;4995189;28;20031;-74
2021/01/04 09:41:33;;;;;;;1.20;1.20;;;-8.10;99.90;;;;;;4995847;28;20081;-74
2021/01/04 09:44:05;;;;;;;1.30;1.30;;;-8.20;99.90;;;;;;4995560;28;20552;-74
2021/01/04 09:46:51;;;;;;;1.70;1.60;;;-8.20;99.90;;;;;;4995483;28;20109;-74
2021/01/04 09:49:26;;;;;;;2.58;2.25;;;-8.10;99.90;;;;;;4983421;28;20022;-74
2021/01/04 09:52:20;;;;;;;3.65;3.35;;;-8.10;99.90;;;;;;4995267;28;20030;-74
2021/01/04 09:54:49;;;;;;;2.47;2.28;;;-8.00;99.90;;;;;;4995589;28;20022;-74
2021/01/04 09:57:24;;;;;;;2.13;1.93;;;-8.00;99.90;;;;;;4995483;28;20029;-74
2021/01/04 09:59:54;;;;;;;3.40;1.75;;;-8.00;99.90;;;;;;4995090;28;20035;-74
2021/01/04 10:02:22;;;;;;;2.00;1.80;;;-8.00;99.90;;;;;;4995524;28;20473;-74
2021/01/04 10:04:47;;;;;;;1.58;1.48;;;-8.00;99.90;;;;;;4994572;28;20389;-75
2021/01/04 10:07:27;;;;;;;1.40;1.30;;;-5.30;99.90;;;;;;4995327;28;20027;-74
2021/01/04 10:09:54;;;;;;;1.38;1.30;;;-4.60;99.90;;;;;;4994863;28;20026;-80
2021/01/04 10:12:24;;;;;;;1.20;1.20;;;-5.30;99.90;;;;;;4994342;28;20056;-79
2021/01/04 10:14:55;;;;;;;1.40;1.30;;;-5.90;99.90;;;;;;4994822;28;20034;-75
2021/01/04 10:17:38;;;;;;;1.45;1.35;;;-6.30;99.90;;;;;;4995243;28;20025;-86
2021/01/04 10:20:27;;;;;;;1.08;1.08;;;-5.90;99.90;;;;;;4995017;28;20046;-78
2021/01/04 10:22:57;;;;;;;1.27;1.27;;;-5.60;99.90;;;;;;4995918;28;20031;-83
2021/01/04 10:25:37;;;;;;;1.33;1.30;;;-6.00;99.90;;;;;;4995143;28;20440;-80
2021/01/04 10:28:03;;;;;;;1.27;1.20;;;-6.40;99.90;;;;;;4995100;28;20054;-82
2021/01/04 10:30:30;;;;;;;1.33;1.10;;;-6.70;99.90;;;;;;4994891;28;20394;-83
2021/01/04 10:33:07;;;;;;;1.50;1.40;;;-6.90;99.90;;;;;;4997149;28;20060;-83
2021/01/04 10:35:33;;;;;;;1.40;1.30;;;-7.00;99.90;;;;;;5008016;28;20404;-82
2021/01/04 10:38:05;;;;;;;1.40;1.30;;;-7.10;99.90;;;;;;5004685;28;20513;-77
2021/01/04 10:40:45;;;;;;;1.20;1.20;;;-7.10;99.90;;;;;;5005809;28;20050;-76
2021/01/04 10:43:19;;;;;;;1.85;1.38;;;-7.10;99.90;;;;;;4997915;28;20140;-77
2021/01/04 10:45:45;;;;;;;1.42;1.33;;;-7.20;99.90;;;;;;5005940;28;20109;-80
2021/01/04 10:48:26;;;;;;;1.60;1.50;;;-7.20;99.90;;;;;;4993607;28;20506;-78
2021/01/04 10:50:56;;;;;;;1.50;1.38;;;-7.30;99.90;;;;;;4993503;28;20034;-78
2021/01/04 10:53:31;;;;;;;;;;;-7.30;99.90;;;;;;4994087;28;20034;-75
2021/01/04 10:56:09;;;;;;;1.15;1.15;;;-7.30;99.90;;;;;;4987777;28;19910;-76
2021/01/04 10:58:46;;;;;;;2.28;1.40;;;-7.30;99.90;;;;;;4993929;28;20061;-76
2021/01/04 11:01:20;;;;;;;5.38;1.50;;;-7.30;99.90;;;;;;4982190;28;20061;-75
2021/01/04 11:03:58;;;;;;;1.58;1.48;;;-7.20;99.90;;;;;;4992732;28;20022;-77
2021/01/04 11:06:27;;;;;;;1.45;1.35;;;-7.30;99.90;;;;;;4983151;28;20481;-76
2021/01/04 11:08:53;;;;;;;1.40;1.23;;;-7.30;99.90;;;;;;4993894;28;20037;-77
2021/01/04 11:11:34;;;;;;;1.65;1.40;;;-7.20;99.90;;;;;;4993864;28;20026;-77
2021/01/04 11:14:22;;;;;;;1.20;1.20;;;-7.20;99.90;;;;;;4993768;28;20033;-76
2021/01/04 11:16:53;;;;;;;1.50;1.40;;;-7.30;99.90;;;;;;4984343;28;20038;-79
2021/01/04 11:19:33;;;;;;;1.50;1.40;;;-7.30;99.90;;;;;;4993254;28;20509;-78
2021/01/04 11:22:19;;;;;;;1.63;1.40;;;-7.30;99.90;;;;;;4993910;28;20054;-77
2021/01/04 11:24:45;;;;;;;1.40;1.20;;;-7.20;99.90;;;;;;4992602;28;20026;-79
2021/01/04 11:27:11;;;;;;;1.58;1.48;;;-7.20;99.90;;;;;;4993658;28;20026;-78
2021/01/04 11:29:41;;;;;;;1.33;1.30;;;-7.30;99.90;;;;;;4994005;28;20026;-77
2021/01/04 11:32:08;;;;;;;1.50;1.40;;;-7.20;99.90;;;;;;4993658;28;20023;-77
2021/01/04 11:34:34;;;;;;;1.40;1.30;;;-7.30;99.90;;;;;;4993809;28;20423;-77
2021/01/04 11:37:00;;;;;;;1.67;1.50;;;-7.30;99.90;;;;;;4993618;28;20531;-77
2021/01/04 11:39:26;;;;;;;1.70;1.10;;;-7.20;99.90;;;;;;4993424;28;20506;-77
2021/01/04 11:41:52;;;;;;;1.45;1.38;;;-7.20;99.90;;;;;;4975709;28;20038;-77
2021/01/04 11:44:18;;;;;;;1.52;1.42;;;-7.30;99.90;;;;;;4992087;28;20022;-79
2021/01/04 11:46:44;;;;;;;1.50;1.40;;;-7.30;99.90;;;;;;4993162;28;20026;-76
2021/01/04 11:49:10;;;;;;;1.40;1.30;;;-7.30;99.90;;;;;;4975958;28;20033;-77
2021/01/04 11:51:35;;;;;;;1.40;1.30;;;-7.20;99.90;;;;;;4992133;28;20019;-78
2021/01/04 11:54:03;;;;;;;1.73;1.63;;;-7.30;99.90;;;;;;4993188;28;20036;-78
2021/01/04 11:56:30;;;;;;;1.60;1.50;;;-7.30;99.90;;;;;;4993069;28;20033;-75
2021/01/04 11:58:57;;;;;;;2.10;1.60;;;-7.30;99.90;;;;;;4990248;28;20033;-73
2021/01/04 12:01:24;;;;;;;1.98;1.88;;;-7.30;99.90;;;;;;4992936;28;20034;-73
2021/01/04 12:03:51;;;;;;;1.52;1.42;;;-7.30;99.90;;;;;;4994256;28;20075;-73
2021/01/04 12:06:16;;;;;;;4.13;2.40;;;-7.30;99.90;;;;;;4991755;28;20034;-73
2021/01/04 12:08:43;;;;;;;4.53;2.30;;;-7.20;99.90;;;;;;4991836;28;20473;-73
2021/01/04 12:11:09;;;;;;;2.55;2.03;;;-7.10;99.90;;;;;;4992064;28;20018;-73
2021/01/04 12:13:35;;;;;;;2.33;2.13;;;-7.20;99.90;;;;;;4992533;28;20085;-76
2021/01/04 12:16:01;;;;;;;1.73;1.63;;;-7.10;99.90;;;;;;4992248;28;20089;-74
2021/01/04 12:18:27;;;;;;;1.58;1.48;;;-7.10;99.90;;;;;;4992391;28;20058;-74
2021/01/04 12:20:53;;;;;;;1.40;1.30;;;-7.10;99.90;;;;;;4992401;28;20389;-74
2021/01/04 12:23:19;;;;;;;1.60;1.50;;;-7.10;99.90;;;;;;5007507;28;20554;-78
2021/01/04 12:25:45;;;;;;;2.40;2.13;;;-7.10;99.90;;;;;;4992005;28;20033;-78
2021/01/04 12:28:11;;;;;;;3.30;3.00;;;-7.10;99.90;;;;;;4992005;28;20441;-78
2021/01/04 12:30:37;;;;;;;2.08;1.90;;;-7.10;99.90;;;;;;4992305;28;20057;-78
2021/01/04 12:33:04;;;;;;;1.63;1.52;;;-7.10;99.90;;;;;;4991263;28;20092;-78
2021/01/04 12:35:30;;;;;;;1.42;1.30;;;-7.10;99.90;;;;;;4990953;28;20035;-80
2021/01/04 12:37:56;;;;;;;1.55;1.45;;;-7.10;99.90;;;;;;4991745;28;20037;-77
2021/01/04 12:40:26;;;;;;;1.75;1.50;;;-7.10;99.90;;;;;;4992177;28;20558;-82
2021/01/04 12:42:53;;;;;;;1.88;1.67;;;-7.20;99.90;;;;;;4991942;28;20501;-76
2021/01/04 12:45:20;;;;;;;3.20;2.08;;;-6.50;99.90;;;;;;4988964;28;20088;-77
2021/01/04 12:47:46;;;;;;;2.22;2.03;;;-6.60;99.90;;;;;;4992089;28;20084;-77
2021/01/04 12:50:12;;;;;;;3.25;1.90;;;-6.90;99.90;;;;;;4991773;28;20105;-77
2021/01/04 12:52:38;;;;;;;2.63;1.80;;;-7.10;99.90;;;;;;4991880;28;20436;-76
2021/01/04 12:55:05;;;;;;;2.03;1.58;;;-7.10;99.90;;;;;;4991358;28;20137;-77
2021/01/04 12:57:31;;;;;;;1.50;1.40;;;-7.10;99.90;;;;;;4991878;28;20590;-78
2021/01/04 12:59:57;;;;;;;1.92;1.50;;;-7.20;99.90;;;;;;4991919;28;20178;-78
2021/01/04 13:02:23;;;;;;;1.40;1.30;;;-7.30;99.90;;;;;;4990492;28;20038;-78
2021/01/04 13:04:49;;;;;;;1.42;1.35;;;-7.30;99.90;;;;;;4991478;28;20030;-78
2021/01/04 13:07:15;;;;;;;2.05;1.50;;;-7.40;99.90;;;;;;4991955;28;20077;-78
2021/01/04 13:09:41;;;;;;;1.52;1.42;;;-7.40;99.90;;;;;;4992136;28;20030;-80
2021/01/04 13:12:07;;;;;;;1.40;1.33;;;-7.30;99.90;;;;;;4991955;28;20640;-70
2021/01/04 13:14:33;;;;;;;2.63;1.50;;;-6.50;99.90;;;;;;4992063;28;20076;-73
2021/01/04 13:17:00;;;;;;;1.50;1.40;;;-5.10;99.90;;;;;;4991774;28;20030;-74
2021/01/04 13:19:32;;;;;;;1.63;1.52;;;-5.60;99.90;;;;;;4991201;28;20051;-73
2021/01/04 13:21:59;;;;;;;1.40;1.40;;;-6.00;99.90;;;;;;4991682;28;20044;-74
2021/01/04 13:24:26;;;;;;;1.70;1.45;;;-6.40;99.90;;;;;;4990512;28;20030;-74
2021/01/04 13:26:53;;;;;;;1.50;1.40;;;-6.60;99.90;;;;;;4991781;28;20050;-72
2021/01/04 13:29:23;;;;;;;1.58;1.40;;;-6.70;99.90;;;;;;4992219;28;20024;-71
2021/01/04 13:31:49;;;;;;;1.50;1.40;;;-6.70;99.90;;;;;;4991794;28;20049;-74
2021/01/04 13:34:15;;;;;;;1.60;1.50;;;-6.80;99.90;;;;;;4991989;28;20026;-73
2021/01/04 13:36:41;;;;;;;1.38;1.27;;;-6.90;99.90;;;;;;4991836;28;20386;-72
2021/01/04 13:39:07;;;;;;;1.60;1.50;;;-6.90;99.90;;;;;;4991741;28;20101;-73
2021/01/04 13:41:34;;;;;;;1.60;1.50;;;-7.00;99.90;;;;;;4991905;28;20053;-72
2021/01/04 13:44:00;;;;;;;1.70;1.60;;;-7.10;99.90;;;;;;4990594;28;20030;-73
2021/01/04 13:46:29;;;;;;;1.98;1.75;;;-7.20;99.90;;;;;;4992347;28;20026;-73
2021/01/04 13:48:55;;;;;;;1.38;1.27;;;-7.10;99.90;;;;;;4995143;28;20073;-72
2021/01/04 13:51:21;;;;;;;1.73;1.48;;;-7.10;99.90;;;;;;4995300;28;20065;-73
2021/01/04 13:53:47;;;;;;;1.60;1.50;;;-7.10;99.90;;;;;;4993336;28;20026;-72
2021/01/04 13:56:13;;;;;;;1.80;1.70;;;-7.00;99.90;;;;;;4994487;28;20029;-72
2021/01/04 13:58:40;;;;;;;1.40;1.30;;;-7.00;99.90;;;;;;4991965;28;20018;-71
2021/01/04 14:01:07;;;;;;;1.80;1.48;;;-7.00;99.90;;;;;;4994910;28;20026;-72
2021/01/04 14:03:33;;;;;;;11.20;5.03;;;-7.10;99.90;;;;;;4993936;28;20031;-72
2021/01/04 14:05:59;;;;;;;5.50;2.97;;;-7.00;99.90;;;;;;4994448;28;20023;-72
2021/01/04 14:08:25;;;;;;;1.80;1.70;;;-6.90;99.90;;;;;;5002563;28;20029;-72
2021/01/04 14:10:51;;;;;;;1.92;1.83;;;-6.90;98.80;;;;;;4996844;28;20031;-74
2021/01/04 14:13:21;;;;;;;2.58;2.03;;;-7.00;97.80;;;;;;4994356;28;20054;-77
2021/01/04 14:15:47;;;;;;;2.33;1.90;;;-7.10;98.30;;;;;;5008169;28;20021;-76
2021/01/04 14:18:13;;;;;;;2.05;1.70;;;-7.10;98.50;;;;;;5007809;28;20105;-75
2021/01/04 14:20:39;;;;;;;2.78;1.77;;;-7.10;98.00;;;;;;5009058;28;20165;-75
2021/01/04 14:23:05;;;;;;;2.25;1.73;;;-7.20;97.80;;;;;;5008381;28;20520;-75
2021/01/04 14:25:30;;;;;;;1.83;1.67;;;-7.20;98.20;;;;;;5003495;28;20426;-76
2021/01/04 14:27:56;;;;;;;2.25;1.75;;;-7.20;98.60;;;;;;5006119;28;20053;-76
2021/01/04 14:30:23;;;;;;;1.40;1.30;;;-7.20;99.30;;;;;;5004792;28;20480;-77
2021/01/04 14:32:51;;;;;;;2.10;1.90;;;-7.20;99.40;;;;;;5001004;28;20033;-76
2021/01/04 14:35:17;;;;;;;2.30;2.10;;;-7.20;99.70;;;;;;4984224;28;20034;-75
2021/01/04 14:37:43;;;;;;;2.03;1.80;;;-7.30;99.80;;;;;;4994052;28;20381;-75
2021/01/04 14:40:10;;;;;;;5.53;2.95;;;-7.20;99.90;;;;;;4993628;28;20459;-75
2021/01/04 14:42:36;;;;;;;6.57;2.92;;;-7.20;99.90;;;;;;4993971;28;20145;-75
2021/01/04 14:45:02;;;;;;;8.10;3.53;;;-7.20;99.90;;;;;;4993910;28;20280;-75
2021/01/04 14:47:32;;;;;;;7.82;3.17;;;-7.20;99.90;;;;;;4992629;28;20074;-76
2021/01/04 14:49:58;;;;;;;;;;;-7.10;99.90;;;;;;4992857;28;20422;-75
2021/01/04 14:52:24;;;;;;;5.18;2.30;;;-7.10;99.10;;;;;;4993660;28;19960;-76
2021/01/04 14:54:51;;;;;;;3.90;2.25;;;-7.10;99.30;;;;;;4992173;28;20393;-76
2021/01/04 14:57:18;;;;;;;5.75;2.70;;;-7.20;99.40;;;;;;4992982;28;20054;-76
2021/01/04 14:59:44;;;;;;;5.65;2.85;;;-7.30;99.90;;;;;;4992851;28;20489;-76
2021/01/04 15:02:11;;;;;;;5.43;2.83;;;-7.30;99.90;;;;;;4993778;28;20038;-76
2021/01/04 15:04:37;;;;;;;5.65;3.35;;;-7.30;99.90;;;;;;4994249;28;20031;-76
2021/01/04 15:07:03;;;;;;;3.25;2.15;;;-7.20;99.90;;;;;;4994168;28;20028;-76
2021/01/04 15:09:29;;;;;;;3.08;1.90;;;-7.20;99.60;;;;;;4992567;28;20085;-75
2021/01/04 15:11:56;;;;;;;1.70;1.60;;;-7.30;99.30;;;;;;4993771;28;20058;-76
2021/01/04 15:14:23;;;;;;;1.75;1.65;;;-7.30;99.60;;;;;;4993889;28;20015;-75
2021/01/04 15:16:51;;;;;;;3.25;2.22;;;-7.30;99.80;;;;;;4992643;28;20030;-75
2021/01/04 15:19:18;;;;;;;2.20;2.00;;;-7.30;99.70;;;;;;4993169;28;20073;-75
2021/01/04 15:21:45;;;;;;;2.30;1.75;;;-7.30;99.40;;;;;;4993669;28;20030;-75
2021/01/04 15:24:11;;;;;;;2.75;1.98;;;-7.30;99.60;;;;;;4993508;28;20026;-76
2021/01/04 15:26:37;;;;;;;3.17;2.00;;;-7.30;99.60;;;;;;4992264;28;20512;-76
2021/01/04 15:29:03;;;;;;;1.92;1.60;;;-7.20;99.80;;;;;;4993296;28;20023;-75
2021/01/04 15:31:29;;;;;;;1.70;1.60;;;-7.20;99.50;;;;;;4993464;28;20026;-75
2021/01/04 15:33:55;;;;;;;1.77;1.67;;;-7.20;99.10;;;;;;4993255;28;20105;-75
2021/01/04 15:36:21;;;;;;;1.98;1.55;;;-7.20;99.10;;;;;;4993382;28;20126;-74
2021/01/04 15:38:47;;;;;;;1.90;1.48;;;-7.30;98.80;;;;;;4993146;28;20038;-74
2021/01/04 15:41:14;;;;;;;1.70;1.60;;;-7.20;99.10;;;;;;4993202;28;20102;-75
2021/01/04 15:43:46;;;;;;;2.55;1.70;;;-7.20;99.00;;;;;;4992116;28;20046;-74
2021/01/04 15:46:14;;;;;;;1.73;1.63;;;-7.30;99.00;;;;;;4993245;28;20040;-74
2021/01/04 15:48:40;;;;;;;1.98;1.75;;;-7.20;99.00;;;;;;4993652;28;20022;-74
2021/01/04 15:51:06;;;;;;;1.98;1.63;;;-7.20;98.90;;;;;;4993183;28;20018;-73
2021/01/04 15:53:32;;;;;;;2.38;1.80;;;-7.20;98.90;;;;;;4993229;28;20045;-73
2021/01/04 15:55:57;;;;;;;2.58;1.77;;;-7.20;98.70;;;;;;4993085;28;20466;-76
2021/01/04 15:58:24;;;;;;;1.98;1.75;;;-7.20;98.30;;;;;;4992917;28;20034;-75
2021/01/04 16:00:50;;;;;;;1.92;1.70;;;-7.00;99.90;;;;;;4992650;28;20042;-76
2021/01/04 16:03:16;;;;;;;2.63;1.80;;;-6.20;99.90;;;;;;4989784;28;20038;-75
2021/01/04 16:05:42;;;;;;;1.95;1.77;;;-6.30;99.90;;;;;;4993108;28;20026;-75
2021/01/04 16:08:08;;;;;;;2.10;1.88;;;-6.60;99.90;;;;;;4992252;28;20023;-75
2021/01/04 16:10:34;;;;;;;2.83;1.67;;;-6.80;99.90;;;;;;4992257;28;20073;-75
2021/01/04 16:13:03;;;;;;;1.88;1.70;;;-6.90;99.70;;;;;;4992468;28;20019;-75
2021/01/04 16:15:29;;;;;;;1.73;1.58;;;-7.00;99.60;;;;;;4992342;28;20023;-75
2021/01/04 16:17:54;;;;;;;1.70;1.60;;;-7.00;99.00;;;;;;4992631;28;20073;-75
2021/01/04 16:20:20;;;;;;;1.52;1.42;;;-7.10;98.80;;;;;;4992303;28;20046;-73
2021/01/04 16:22:46;;;;;;;1.65;1.50;;;-7.10;98.80;;;;;;4992058;28;20019;-76
2021/01/04 16:25:15;;;;;;;1.67;1.55;;;-6.70;99.90;;;;;;4992534;28;20482;-75
2021/01/04 16:27:40;;;;;;;1.42;1.33;;;-6.50;99.90;;;;;;4992639;28;20018;-80
2021/01/04 16:30:08;;;;;;;1.52;1.42;;;-6.70;99.90;;;;;;4992208;28;20048;-73
2021/01/04 16:32:35;;;;;;;2.35;1.60;;;-7.00;99.90;;;;;;4992435;28;20025;-72
2021/01/04 16:35:01;;;;;;;1.40;1.30;;;-7.00;99.80;;;;;;4992198;28;20026;-72
2021/01/04 16:37:26;;;;;;;1.45;1.35;;;-7.10;99.80;;;;;;4992224;28;20022;-73
2021/01/04 16:39:52;;;;;;;1.50;1.40;;;-7.10;99.70;;;;;;4992240;28;20402;-73
2021/01/04 16:42:21;;;;;;;1.70;1.60;;;-7.10;99.00;;;;;;4980234;28;20029;-73
2021/01/04 16:44:49;;;;;;;2.35;1.70;;;-7.10;98.80;;;;;;4992565;28;20084;-70
2021/01/04 16:47:16;;;;;;;1.50;1.40;;;-7.10;98.20;;;;;;4990921;28;20026;-72
2021/01/04 16:49:43;;;;;;;2.30;1.45;;;-7.10;97.80;;;;;;4992582;28;20030;-75
2021/01/04 16:52:10;;;;;;;1.42;1.33;;;-7.20;97.70;;;;;;4991920;28;20386;-72
2021/01/04 16:54:39;;;;;;;3.08;1.75;;;-6.60;99.90;;;;;;4992209;28;20026;-72
2021/01/04 16:57:05;;;;;;;1.75;1.45;;;-6.70;99.90;;;;;;4991057;28;20022;-72
2021/01/04 16:59:31;;;;;;;1.98;1.67;;;-6.90;99.90;;;;;;4991997;28;20027;-72
2021/01/04 17:01:57;;;;;;;1.45;1.35;;;-7.00;98.70;;;;;;4992370;28;20033;-72
2021/01/04 17:04:22;;;;;;;1.52;1.40;;;-7.10;98.80;;;;;;4991907;28;20030;-71
2021/01/04 17:06:53;;;;;;;1.50;1.40;;;-7.20;98.70;;;;;;4991987;28;20022;-72
2021/01/04 17:09:19;;;;;;;2.85;1.70;;;-7.20;98.40;;;;;;4992250;28;20038;-72
2021/01/04 17:11:46;;;;;;;1.73;1.63;;;-7.20;98.50;;;;;;4992290;28;20038;-72
2021/01/04 17:14:14;;;;;;;2.65;1.75;;;-7.30;98.10;;;;;;4991882;28;20081;-72
2021/01/04 17:16:40;;;;;;;4.90;2.10;;;-7.30;98.00;;;;;;4992072;28;20026;-71
2021/01/04 17:19:08;;;;;;;3.67;2.40;;;-5.60;99.90;;;;;;4992644;28;20057;-69
2021/01/04 17:21:35;;;;;;;2.30;2.10;;;-5.40;99.90;;;;;;4992989;28;20127;-68
2021/01/04 17:24:05;;;;;;;2.28;1.83;;;-5.90;99.90;;;;;;4996048;28;20213;-70
2021/01/04 17:26:37;;;;;;;1.90;1.80;;;-5.50;99.90;;;;;;5000629;28;20106;-70
2021/01/04 17:29:03;;;;;;;1.70;1.50;;;-5.80;99.90;;;;;;4998025;28;20256;-69
2021/01/04 17:31:29;;;;;;;1.30;1.30;;;-6.10;99.90;;;;;;5000822;28;20022;-70
2021/01/04 17:33:56;;;;;;;1.40;1.30;;;-6.50;98.30;;;;;;4999634;28;20113;-69
2021/01/04 17:36:23;;;;;;;2.10;1.30;;;-6.60;97.80;;;;;;4995750;28;20026;-68
2021/01/04 17:38:49;;;;;;;1.50;1.40;;;-6.80;97.60;;;;;;4997643;28;20068;-69
2021/01/04 17:41:18;;;;;;;1.48;1.30;;;-6.90;96.50;;;;;;4997359;28;20130;-69
2021/01/04 17:43:45;;;;;;;1.42;1.30;;;-7.00;96.30;;;;;;4999310;28;20015;-69
2021/01/04 17:46:11;;;;;;;1.70;1.60;;;-7.20;96.20;;;;;;4997297;28;20113;-69
2021/01/04 17:48:38;;;;;;;6.57;3.13;;;-7.30;96.70;;;;;;4999001;28;20019;-69
2021/01/04 17:51:10;;;;;;;4.57;2.50;;;-7.30;96.90;;;;;;4997659;28;20477;-70
2021/01/04 17:53:36;;;;;;;3.00;2.20;;;-7.30;96.80;;;;;;4995475;28;20031;-70
2021/01/04 17:56:04;;;;;;;2.38;2.03;;;-7.30;96.60;;;;;;5012912;28;20022;-69
2021/01/04 17:58:30;;;;;;;1.73;1.40;;;-7.30;96.40;;;;;;5013511;28;20030;-69
2021/01/04 18:00:56;;;;;;;2.53;1.70;;;-7.30;96.80;;;;;;5011956;28;20053;-70
2021/01/04 18:03:22;;;;;;;1.63;1.50;;;-7.30;96.60;;;;;;5013443;28;20026;-71
2021/01/04 18:05:47;;;;;;;1.33;1.23;;;-7.30;96.40;;;;;;5010752;28;20022;-70
2021/01/04 18:08:13;;;;;;;1.50;1.40;;;-7.30;96.20;;;;;;5009475;28;20096;-70
2021/01/04 18:10:39;;;;;;;1.45;1.35;;;-7.40;96.00;;;;;;5001746;28;20112;-70
2021/01/04 18:13:05;;;;;;;1.60;1.50;;;-7.40;95.90;;;;;;5001556;28;20050;-69
2021/01/04 18:15:30;;;;;;;1.48;1.38;;;-7.40;95.80;;;;;;4995046;28;20112;-70
2021/01/04 18:18:00;;;;;;;1.48;1.40;;;-7.40;95.60;;;;;;4993791;28;20038;-71
2021/01/04 18:20:26;;;;;;;1.43;1.33;;;-7.40;95.10;;;;;;4994979;28;20030;-71
2021/01/04 18:22:51;;;;;;;1.40;1.30;;;-7.40;95.20;;;;;;4994844;28;20260;-70
2021/01/04 18:25:17;;;;;;;1.45;1.35;;;-7.50;95.30;;;;;;4994937;28;20029;-70
2021/01/04 18:27:43;;;;;;;1.50;1.40;;;-7.50;95.50;;;;;;4995131;28;20026;-70
2021/01/04 18:30:12;;;;;;;1.65;1.55;;;-7.50;95.30;;;;;;4994871;28;20121;-70
2021/01/04 18:32:38;;;;;;;1.20;1.20;;;-7.50;95.40;;;;;;4994545;28;20026;-70